createdAt,value
2018-08-18T03:08:46.322Z,14.43
2018-08-18T03:09:20.613Z,8.93
2018-08-18T03:09:54.543Z,11.63
2018-08-18T03:10:28.970Z,10.53
2018-08-18T03:11:03.154Z,9.73
2018-08-18T03:11:42.646Z,9.37
2018-08-18T03:12:16.635Z,10.63
2018-08-18T03:12:51.461Z,9.50
2018-08-18T03:13:26.418Z,10.77
2018-08-18T03:14:00.114Z,9.97
2018-08-18T03:14:34.084Z,10.60
2018-08-18T03:15:08.202Z,9.17
2018-08-18T03:15:57.621Z,9.70
2018-08-18T03:16:31.752Z,9.20
2018-08-18T03:17:06.132Z,9.47
2018-08-18T03:17:40.022Z,11.10
2018-08-18T03:18:13.845Z,10.73
2018-08-18T03:18:49.705Z,14.30
2018-08-18T03:19:23.586Z,11.20
2018-08-18T03:19:57.608Z,9.80
2018-08-18T03:20:31.436Z,10.10
2018-08-18T03:21:05.581Z,11.07
2018-08-18T03:21:43.667Z,10.07
2018-08-18T03:22:18.019Z,10.73
2018-08-18T03:22:51.832Z,12.60
2018-08-18T03:23:25.851Z,11.47
2018-08-18T03:24:10.611Z,9.53
2018-08-18T03:24:44.598Z,10.40
2018-08-18T03:25:18.811Z,10.03
2018-08-18T03:25:54.108Z,14.90
2018-08-18T03:27:03.305Z,9.67
2018-08-18T03:27:37.215Z,11.30
2018-08-18T03:28:11.141Z,9.60
2018-08-18T03:28:50.214Z,9.20
2018-08-18T03:29:26.193Z,10.73
2018-08-18T03:30:00.119Z,10.80
2018-08-18T03:30:33.903Z,9.40
2018-08-18T03:31:08.089Z,8.87
2018-08-18T03:31:42.312Z,11.60
2018-08-18T03:32:15.963Z,8.27
2018-08-18T03:32:49.895Z,10.30
2018-08-18T03:33:24.328Z,9.37
2018-08-18T03:33:58.187Z,9.87
2018-08-18T03:34:32.259Z,11.67
2018-08-18T03:35:06.072Z,10.97
2018-08-18T03:35:39.963Z,11.83
2018-08-18T03:36:25.816Z,10.73
2018-08-18T03:37:01.096Z,11.77
2018-08-18T03:37:35.160Z,9.23
2018-08-18T03:38:08.891Z,11.73
2018-08-18T03:38:42.683Z,9.03
2018-08-18T03:39:25.718Z,9.50
2018-08-18T03:39:59.644Z,8.97
2018-08-18T03:40:33.429Z,8.73
2018-08-18T03:41:07.221Z,8.50
2018-08-18T03:41:41.083Z,9.47
2018-08-18T03:42:14.941Z,9.80
2018-08-18T03:42:48.730Z,10.77
2018-08-18T03:43:23.579Z,8.77
2018-08-18T03:43:57.768Z,9.93
2018-08-18T03:44:33.719Z,10.23
2018-08-18T03:45:07.374Z,14.37
2018-08-18T03:45:40.981Z,9.07
2018-08-18T03:46:14.860Z,9.10
2018-08-18T03:46:48.737Z,9.40
2018-08-18T03:47:23.960Z,10.70
2018-08-18T03:47:57.831Z,12.50
2018-08-18T03:48:31.552Z,9.57
2018-08-18T03:49:05.402Z,9.70
2018-08-18T03:49:39.114Z,10.47
2018-08-18T03:50:12.892Z,11.00
2018-08-18T03:50:47.961Z,10.37
2018-08-18T03:51:30.855Z,9.33
2018-08-18T03:52:04.856Z,10.30
2018-08-18T03:52:38.647Z,9.83
2018-08-18T03:53:15.624Z,10.13
2018-08-18T03:53:49.364Z,9.53
2018-08-18T03:54:23.567Z,10.97
2018-08-18T03:54:57.264Z,10.33
2018-08-18T03:55:37.562Z,10.87
2018-08-18T03:56:11.392Z,11.63
2018-08-18T03:56:45.653Z,8.90
2018-08-18T03:57:19.684Z,9.03
2018-08-18T03:57:53.980Z,9.80
2018-08-18T03:58:32.467Z,9.57
2018-08-18T03:59:06.188Z,11.63
2018-08-18T03:59:39.971Z,8.60
2018-08-18T04:00:14.840Z,9.27
2018-08-18T04:00:48.660Z,12.70
2018-08-18T04:01:36.946Z,10.33
2018-08-18T04:02:10.757Z,9.77
2018-08-18T04:02:44.452Z,9.53
2018-08-18T04:03:18.352Z,9.63
2018-08-18T04:03:52.754Z,15.70
2018-08-18T04:04:34.335Z,10.43
2018-08-18T04:05:09.314Z,8.87
2018-08-18T04:05:43.140Z,8.80
2018-08-18T04:06:16.827Z,9.10
2018-08-18T04:06:52.059Z,10.17
2018-08-18T04:07:26.211Z,10.70
2018-08-18T04:08:00.270Z,11.07
2018-08-18T04:08:33.998Z,8.47
2018-08-18T04:09:11.841Z,8.20
2018-08-18T04:09:45.590Z,8.33
2018-08-18T04:10:19.416Z,9.67
2018-08-18T04:10:53.249Z,9.40
2018-08-18T04:11:27.527Z,8.67
2018-08-18T04:12:02.877Z,8.57
2018-08-18T04:12:36.691Z,8.77
2018-08-18T04:13:10.489Z,8.87
2018-08-18T04:13:44.323Z,8.30
2018-08-18T04:14:20.125Z,9.30
2018-08-18T04:14:54.034Z,9.40
2018-08-18T04:15:28.012Z,8.90
2018-08-18T04:16:01.808Z,8.63
2018-08-18T04:16:39.310Z,10.03
2018-08-18T04:17:24.703Z,11.50
2018-08-18T04:18:03.344Z,8.77
2018-08-18T04:18:37.082Z,9.13
2018-08-18T04:19:10.777Z,9.77
2018-08-18T04:19:45.994Z,9.97
2018-08-18T04:20:20.008Z,10.10
2018-08-18T04:20:53.693Z,10.03
2018-08-18T04:21:28.063Z,11.93
2018-08-18T04:22:01.979Z,11.40
2018-08-18T04:22:35.784Z,9.37
2018-08-18T04:23:09.608Z,10.27
2018-08-18T04:23:43.927Z,13.93
2018-08-18T04:24:17.809Z,9.93
2018-08-18T04:24:51.606Z,9.60
2018-08-18T04:25:25.488Z,10.03
2018-08-18T04:25:59.400Z,10.97
2018-08-18T04:26:33.115Z,10.93
2018-08-18T04:27:06.836Z,15.13
2018-08-18T04:27:43.561Z,10.13
2018-08-18T04:28:17.258Z,11.00
2018-08-18T04:28:51.080Z,10.00
2018-08-18T04:29:24.993Z,10.20
2018-08-18T04:29:58.975Z,11.77
2018-08-18T04:30:32.851Z,9.43
2018-08-18T04:31:06.991Z,9.70
2018-08-18T04:31:40.859Z,11.87
2018-08-18T04:32:14.719Z,10.43
2018-08-18T04:32:58.176Z,9.37
2018-08-18T04:33:32.115Z,9.63
2018-08-18T04:34:07.290Z,9.67
2018-08-18T04:34:41.191Z,9.07
2018-08-18T04:35:14.874Z,10.77
2018-08-18T04:35:53.307Z,13.33
2018-08-18T04:36:27.238Z,12.77
2018-08-18T04:37:01.785Z,9.17
2018-08-18T04:37:35.643Z,12.20
2018-08-18T04:38:09.490Z,9.80
2018-08-18T04:38:43.502Z,9.40
2018-08-18T04:39:17.361Z,10.17
2018-08-18T04:39:51.264Z,9.23
2018-08-18T04:40:25.300Z,11.47
2018-08-18T04:40:59.285Z,12.63
2018-08-18T04:41:33.417Z,9.50
2018-08-18T04:42:07.686Z,8.60
2018-08-18T04:42:41.853Z,10.40
2018-08-18T04:43:15.849Z,10.87
2018-08-18T04:43:49.986Z,11.23
2018-08-18T04:44:23.776Z,11.43
2018-08-18T04:44:57.733Z,13.00
2018-08-18T04:45:31.663Z,11.20
2018-08-18T04:46:05.718Z,9.23
2018-08-18T04:46:39.501Z,10.17
2018-08-18T04:47:29.769Z,12.23
2018-08-18T04:48:03.808Z,12.47
2018-08-18T04:48:37.520Z,11.30
2018-08-18T04:49:11.352Z,13.40
2018-08-18T04:49:45.397Z,13.10
2018-08-18T04:50:20.116Z,9.87
2018-08-18T04:50:53.755Z,9.90
2018-08-18T04:51:27.796Z,9.83
2018-08-18T04:52:01.891Z,12.70
2018-08-18T04:52:35.790Z,10.10
2018-08-18T04:53:09.608Z,9.50
2018-08-18T04:53:43.457Z,10.63
2018-08-18T04:54:17.188Z,11.57
2018-08-18T04:54:50.851Z,9.20
2018-08-18T04:55:24.650Z,10.13
2018-08-18T04:55:58.544Z,10.03
2018-08-18T04:56:32.704Z,11.37
2018-08-18T04:57:06.631Z,11.27
2018-08-18T04:57:40.358Z,12.27
2018-08-18T04:58:14.318Z,12.57
2018-08-18T04:58:48.172Z,10.23
2018-08-18T04:59:22.947Z,11.20
2018-08-18T04:59:57.652Z,9.70
2018-08-18T05:00:31.443Z,9.00
2018-08-18T05:01:05.503Z,10.90
2018-08-18T05:01:40.145Z,11.43
2018-08-18T05:02:14.236Z,9.77
2018-08-18T05:02:56.033Z,11.67
2018-08-18T05:03:29.867Z,12.40
2018-08-18T05:04:07.982Z,10.17
2018-08-18T05:04:41.621Z,11.87
2018-08-18T05:05:17.592Z,9.90
2018-08-18T05:05:51.418Z,11.00
2018-08-18T05:06:26.872Z,10.40
2018-08-18T05:07:00.646Z,11.80
2018-08-18T05:07:39.050Z,10.00
2018-08-18T05:08:12.875Z,10.13
2018-08-18T05:08:46.825Z,9.77
2018-08-18T05:09:20.728Z,9.83
2018-08-18T05:09:54.657Z,9.57
2018-08-18T05:10:29.047Z,9.60
2018-08-18T05:11:02.834Z,9.37
2018-08-18T05:11:36.927Z,10.23
2018-08-18T05:12:10.792Z,9.27
2018-08-18T05:12:44.615Z,9.87
2018-08-18T05:13:18.397Z,9.07
2018-08-18T05:13:52.229Z,8.80
2018-08-18T05:14:26.004Z,10.97
2018-08-18T05:14:59.597Z,12.57
2018-08-18T05:15:33.366Z,9.27
2018-08-18T05:16:07.265Z,10.70
2018-08-18T05:16:40.920Z,9.00
2018-08-18T05:17:14.772Z,10.20
2018-08-18T05:17:49.776Z,9.30
2018-08-18T05:18:23.569Z,9.47
2018-08-18T05:18:57.541Z,9.37
2018-08-18T05:19:31.319Z,8.47
2018-08-18T05:20:11.051Z,9.73
2018-08-18T05:20:45.415Z,9.07
2018-08-18T05:21:21.148Z,8.53
2018-08-18T05:21:54.825Z,9.00
2018-08-18T05:22:28.529Z,11.87
2018-08-18T05:23:37.780Z,11.53
2018-08-18T05:24:21.368Z,9.77
2018-08-18T05:24:55.034Z,10.13
2018-08-18T05:25:36.543Z,11.20
2018-08-18T05:26:10.520Z,8.87
2018-08-18T05:26:44.303Z,8.77
2018-08-18T05:27:19.012Z,9.83
2018-08-18T05:27:52.820Z,10.67
2018-08-18T05:28:26.620Z,10.53
2018-08-18T05:29:00.317Z,9.57
2018-08-18T05:29:34.074Z,8.67
2018-08-18T05:30:08.113Z,9.03
2018-08-18T05:30:42.483Z,10.83
2018-08-18T05:31:18.051Z,10.70
2018-08-18T05:31:51.946Z,9.23
2018-08-18T05:32:25.684Z,9.37
2018-08-18T05:32:59.465Z,8.57
2018-08-18T05:33:33.433Z,8.77
2018-08-18T05:34:07.839Z,9.27
2018-08-18T05:34:41.819Z,8.40
2018-08-18T05:35:15.603Z,10.87
2018-08-18T05:35:49.375Z,10.47
2018-08-18T05:36:23.432Z,9.10
2018-08-18T05:37:00.416Z,9.23
2018-08-18T05:37:34.253Z,11.97
2018-08-18T05:38:08.600Z,10.50
2018-08-18T05:38:43.153Z,16.47
2018-08-18T05:39:16.909Z,17.80
2018-08-18T05:39:50.759Z,20.77
2018-08-18T05:40:24.733Z,20.37
2018-08-18T05:40:58.429Z,22.60
2018-08-18T05:41:33.390Z,19.57
2018-08-18T05:42:07.434Z,25.33
2018-08-18T05:42:41.299Z,24.97
2018-08-18T05:43:15.193Z,28.30
2018-08-18T05:43:49.353Z,23.27
2018-08-18T05:44:23.140Z,25.37
2018-08-18T05:44:56.959Z,23.17
2018-08-18T05:45:32.891Z,26.50
2018-08-18T05:46:06.889Z,29.03
2018-08-18T05:46:40.881Z,27.27
2018-08-18T05:47:15.057Z,28.20
2018-08-18T05:47:49.813Z,26.60
2018-08-18T05:48:23.411Z,26.43
2018-08-18T05:49:01.892Z,26.53
2018-08-18T05:49:35.738Z,33.40
2018-08-18T05:50:09.569Z,34.67
2018-08-18T05:50:43.506Z,28.33
2018-08-18T05:51:17.428Z,31.63
2018-08-18T05:51:52.253Z,27.77
2018-08-18T05:52:26.074Z,33.27
2018-08-18T05:53:15.338Z,31.70
2018-08-18T05:53:49.303Z,36.70
2018-08-18T05:54:26.968Z,25.77
2018-08-18T05:55:00.776Z,26.97
2018-08-18T05:55:34.668Z,23.53
2018-08-18T05:56:08.396Z,24.23
2018-08-18T05:56:43.735Z,17.63
2018-08-18T05:57:17.779Z,23.37
2018-08-18T05:57:51.765Z,19.90
2018-08-18T05:58:25.622Z,15.70
2018-08-18T05:58:59.444Z,15.83
2018-08-18T05:59:34.209Z,17.83
2018-08-18T06:00:13.626Z,17.37
2018-08-18T06:00:48.492Z,17.03
2018-08-18T06:01:27.189Z,18.07
2018-08-18T06:02:00.867Z,16.57
2018-08-18T06:02:36.148Z,14.17
2018-08-18T06:03:09.814Z,13.10
2018-08-18T06:03:43.862Z,13.57
2018-08-18T06:04:19.673Z,14.43
2018-08-18T06:04:53.440Z,14.23
2018-08-18T06:05:29.491Z,15.37
2018-08-18T06:06:03.281Z,15.77
2018-08-18T06:06:37.544Z,15.50
2018-08-18T06:07:11.268Z,12.50
2018-08-18T06:07:46.904Z,13.50
2018-08-18T06:08:21.631Z,15.17
2018-08-18T06:08:55.660Z,16.13
2018-08-18T06:09:29.829Z,11.90
2018-08-18T06:10:04.252Z,12.60
2018-08-18T06:10:38.135Z,14.13
2018-08-18T06:11:12.706Z,12.13
2018-08-18T06:11:47.115Z,11.53
2018-08-18T06:12:21.098Z,12.37
2018-08-18T06:12:55.816Z,14.23
2018-08-18T06:13:29.759Z,14.67
2018-08-18T06:14:04.125Z,12.30
2018-08-18T06:14:53.749Z,10.77
2018-08-18T06:15:27.533Z,14.50
2018-08-18T06:16:10.011Z,13.87
2018-08-18T06:16:44.493Z,12.13
2018-08-18T06:17:23.854Z,12.63
2018-08-18T06:17:57.824Z,13.33
2018-08-18T06:18:31.899Z,15.67
2018-08-18T06:19:05.731Z,13.00
2018-08-18T06:19:39.647Z,14.13
2018-08-18T06:20:13.551Z,17.67
2018-08-18T06:20:47.721Z,12.00
2018-08-18T06:21:21.646Z,12.13
2018-08-18T06:21:55.484Z,17.87
2018-08-18T06:22:29.253Z,11.47
2018-08-18T06:23:03.015Z,11.37
2018-08-18T06:23:37.826Z,11.97
2018-08-18T06:24:11.631Z,10.93
2018-08-18T06:24:45.903Z,15.00
2018-08-18T06:25:20.038Z,12.30
2018-08-18T06:25:54.049Z,12.40
2018-08-18T06:26:28.244Z,11.63
2018-08-18T06:27:02.232Z,12.63
2018-08-18T06:27:36.110Z,12.33
2018-08-18T06:28:09.946Z,10.70
2018-08-18T06:28:43.860Z,11.50
2018-08-18T06:29:18.057Z,11.83
2018-08-18T06:29:52.451Z,11.77
2018-08-18T06:30:26.289Z,15.73
2018-08-18T06:31:00.140Z,16.07
2018-08-18T06:31:41.842Z,12.17
2018-08-18T06:32:15.506Z,12.53
2018-08-18T06:32:49.661Z,11.33
2018-08-18T06:33:24.022Z,14.73
2018-08-18T06:33:57.865Z,14.57
2018-08-18T06:34:33.411Z,15.47
2018-08-18T06:35:07.385Z,12.23
2018-08-18T06:35:41.118Z,12.77
2018-08-18T06:36:15.070Z,11.73
2018-08-18T06:36:49.517Z,12.97
2018-08-18T06:37:23.672Z,11.00
2018-08-18T06:37:59.408Z,14.13
2018-08-18T06:38:33.608Z,11.03
2018-08-18T06:39:07.360Z,11.93
2018-08-18T06:39:54.371Z,12.77
2018-08-18T06:40:29.317Z,11.97
2018-08-18T06:41:03.552Z,14.57
2018-08-18T06:41:37.766Z,9.77
2018-08-18T06:42:22.835Z,12.57
2018-08-18T06:42:56.692Z,12.03
2018-08-18T06:43:34.293Z,12.90
2018-08-18T06:44:08.274Z,12.20
2018-08-18T06:44:42.256Z,9.40
2018-08-18T06:45:17.297Z,9.57
2018-08-18T06:45:51.494Z,9.20
2018-08-18T06:46:25.424Z,9.97
2018-08-18T06:46:59.468Z,12.47
2018-08-18T06:47:33.389Z,12.27
2018-08-18T06:48:17.724Z,10.70
2018-08-18T06:48:51.856Z,13.27
2018-08-18T06:49:25.923Z,10.33
2018-08-18T06:49:59.753Z,16.60
2018-08-18T06:50:39.340Z,14.00
2018-08-18T06:51:13.341Z,10.33
2018-08-18T06:51:47.066Z,12.90
2018-08-18T06:52:21.288Z,12.80
2018-08-18T06:52:55.737Z,11.90
2018-08-18T06:53:34.432Z,13.80
2018-08-18T06:54:08.746Z,14.60
2018-08-18T06:54:42.504Z,13.33
2018-08-18T06:55:20.160Z,15.07
2018-08-18T06:55:55.617Z,18.17
2018-08-18T06:56:29.448Z,9.60
2018-08-18T06:57:03.554Z,12.83
2018-08-18T06:57:42.834Z,15.77
2018-08-18T06:58:16.513Z,12.33
2018-08-18T06:58:50.752Z,9.87
2018-08-18T06:59:25.013Z,11.93
2018-08-18T07:00:06.412Z,14.50
2018-08-18T07:00:40.852Z,14.73
2018-08-18T07:01:14.498Z,13.50
2018-08-18T07:01:48.380Z,13.60
2018-08-18T07:02:24.366Z,11.67
2018-08-18T07:02:58.372Z,17.37
2018-08-18T07:03:35.941Z,12.70
2018-08-18T07:04:14.350Z,12.93
2018-08-18T07:04:48.339Z,12.23
2018-08-18T07:05:22.288Z,11.67
2018-08-18T07:05:57.293Z,9.47
2018-08-18T07:06:31.200Z,15.67
2018-08-18T07:07:05.134Z,8.93
2018-08-18T07:07:39.001Z,10.87
2018-08-18T07:08:12.829Z,8.70
2018-08-18T07:08:53.628Z,9.43
2018-08-18T07:09:27.987Z,11.73
2018-08-18T07:10:20.947Z,10.57
2018-08-18T07:10:55.518Z,11.67
2018-08-18T07:11:29.430Z,13.70
2018-08-18T07:12:03.510Z,12.67
2018-08-18T07:12:37.727Z,12.47
2018-08-18T07:13:11.624Z,12.60
2018-08-18T07:13:46.144Z,12.77
2018-08-18T07:14:19.944Z,12.23
2018-08-18T07:15:04.080Z,13.03
2018-08-18T07:15:40.441Z,11.00
2018-08-18T07:16:14.381Z,12.57
2018-08-18T07:16:48.425Z,15.60
2018-08-18T07:17:22.513Z,11.63
2018-08-18T07:17:56.745Z,14.40
2018-08-18T07:18:30.978Z,8.50
2018-08-18T07:19:05.741Z,12.03
2018-08-18T07:19:39.667Z,11.17
2018-08-18T07:20:13.811Z,12.50
2018-08-18T07:20:47.555Z,14.80
2018-08-18T07:21:21.324Z,10.20
2018-08-18T07:21:55.481Z,9.90
2018-08-18T07:22:29.958Z,12.87
2018-08-18T07:23:04.009Z,11.60
2018-08-18T07:23:38.049Z,9.83
2018-08-18T07:24:11.737Z,10.33
2018-08-18T07:24:45.582Z,10.33
2018-08-18T07:25:19.895Z,9.45
2018-08-18T07:25:56.591Z,11.70
2018-08-18T07:26:30.427Z,9.55
2018-08-18T07:27:04.548Z,11.57
2018-08-18T07:27:38.960Z,9.83
2018-08-18T07:28:13.025Z,13.57
2018-08-18T07:28:46.874Z,10.32
2018-08-18T07:29:20.495Z,12.03
2018-08-18T07:29:54.323Z,12.60
2018-08-18T07:30:29.276Z,10.18
2018-08-18T07:31:03.144Z,12.47
2018-08-18T07:31:37.012Z,14.05
2018-08-18T07:32:10.783Z,12.20
2018-08-18T07:32:44.648Z,13.00
2018-08-18T07:33:18.630Z,13.30
2018-08-18T07:33:52.716Z,9.83
2018-08-18T07:34:26.633Z,9.60
2018-08-18T07:35:00.515Z,16.37
2018-08-18T07:35:34.291Z,10.93
2018-08-18T07:36:08.056Z,9.73
2018-08-18T07:36:41.999Z,18.37
2018-08-18T07:37:16.046Z,12.58
2018-08-18T07:37:49.814Z,10.35
2018-08-18T07:38:23.615Z,8.90
2018-08-18T07:38:58.452Z,10.68
2018-08-18T07:39:32.426Z,9.68
2018-08-18T07:40:07.508Z,9.75
2018-08-18T07:40:42.220Z,11.45
2018-08-18T07:41:16.135Z,10.95
2018-08-18T07:41:49.989Z,10.93
2018-08-18T07:42:23.918Z,13.55
2018-08-18T07:43:01.931Z,12.68
2018-08-18T07:43:35.736Z,9.38
2018-08-18T07:44:09.784Z,8.50
2018-08-18T07:44:43.684Z,12.88
2018-08-18T07:46:00.228Z,9.88
2018-08-18T07:46:34.434Z,12.05
2018-08-18T07:47:08.276Z,10.95
2018-08-18T07:47:42.134Z,13.93
2018-08-18T07:48:16.579Z,9.00
2018-08-18T07:48:50.980Z,11.68
2018-08-18T07:49:24.829Z,11.40
2018-08-18T07:50:00.053Z,10.65
2018-08-18T07:50:35.451Z,11.78
2018-08-18T07:51:13.242Z,9.80
2018-08-18T07:51:47.646Z,11.55
2018-08-18T07:52:21.683Z,13.08
2018-08-18T07:52:55.820Z,10.18
2018-08-18T07:53:30.525Z,11.88
2018-08-18T07:54:04.678Z,9.43
2018-08-18T07:54:38.703Z,12.90
2018-08-18T07:55:13.140Z,9.60
2018-08-18T07:55:47.354Z,7.75
2018-08-18T07:56:21.077Z,10.70
2018-08-18T07:56:54.820Z,9.13
2018-08-18T07:57:29.389Z,9.58
2018-08-18T07:58:06.755Z,9.85
2018-08-18T07:58:40.656Z,11.20
2018-08-18T07:59:14.528Z,9.93
2018-08-18T07:59:48.530Z,8.13
2018-08-18T08:00:22.217Z,8.88
2018-08-18T08:00:57.524Z,9.30
2018-08-18T08:01:31.369Z,8.20
2018-08-18T08:02:05.536Z,12.93
2018-08-18T08:02:39.459Z,6.87
2018-08-18T08:03:14.346Z,8.18
2018-08-18T08:03:48.390Z,8.40
2018-08-18T08:04:22.147Z,10.03
2018-08-18T08:04:56.480Z,7.85
2018-08-18T08:05:31.156Z,9.53
2018-08-18T08:06:05.296Z,12.50
2018-08-18T08:06:39.499Z,13.30
2018-08-18T08:07:13.283Z,10.72
2018-08-18T08:07:47.006Z,12.03
2018-08-18T08:08:20.915Z,12.58
2018-08-18T08:08:54.979Z,10.10
2018-08-18T08:09:29.136Z,9.30
2018-08-18T08:10:03.298Z,9.35
2018-08-18T08:10:37.319Z,13.50
2018-08-18T08:11:14.151Z,8.55
2018-08-18T08:11:48.418Z,8.65
2018-08-18T08:12:22.272Z,7.33
2018-08-18T08:12:56.915Z,9.40
2018-08-18T08:13:30.547Z,11.25
2018-08-18T08:14:04.939Z,10.60
2018-08-18T08:14:38.814Z,6.67
2018-08-18T08:15:16.903Z,11.10
2018-08-18T08:15:50.887Z,12.50
2018-08-18T08:16:24.865Z,8.78
2018-08-18T08:16:58.801Z,7.90
2018-08-18T08:17:32.917Z,6.85
2018-08-18T08:18:08.075Z,7.75
2018-08-18T08:18:41.824Z,8.15
2018-08-18T08:19:15.519Z,7.10
2018-08-18T08:19:51.481Z,9.30
2018-08-18T08:20:34.359Z,12.25
2018-08-18T08:21:09.572Z,8.03
2018-08-18T08:21:43.420Z,9.25
2018-08-18T08:22:17.337Z,9.65
2018-08-18T08:22:52.758Z,7.17
2018-08-18T08:23:26.627Z,6.50
2018-08-18T08:24:01.068Z,9.73
2018-08-18T08:24:35.415Z,7.45
2018-08-18T08:25:10.073Z,8.70
2018-08-18T08:25:43.910Z,7.75
2018-08-18T08:26:17.663Z,10.72
2018-08-18T08:26:51.416Z,7.70
2018-08-18T08:27:25.217Z,8.28
2018-08-18T08:27:59.490Z,7.50
2018-08-18T08:28:33.510Z,8.40
2018-08-18T08:29:14.211Z,6.75
2018-08-18T08:29:48.157Z,7.90
2018-08-18T08:30:23.628Z,8.90
2018-08-18T08:30:57.712Z,10.38
2018-08-18T08:31:32.115Z,6.78
2018-08-18T08:32:08.835Z,7.22
2018-08-18T08:32:44.472Z,7.85
2018-08-18T08:33:35.474Z,10.60
2018-08-18T08:34:12.191Z,14.15
2018-08-18T08:34:50.742Z,10.05
2018-08-18T08:35:24.563Z,8.35
2018-08-18T08:36:01.679Z,8.05
2018-08-18T08:36:38.768Z,9.55
2018-08-18T08:37:24.419Z,5.67
2018-08-18T08:38:02.608Z,10.85
2018-08-18T08:38:52.213Z,8.45
2018-08-18T08:39:27.730Z,8.88
2018-08-18T08:40:02.188Z,8.60
2018-08-18T08:40:36.351Z,8.05
2018-08-18T08:41:12.178Z,8.83
2018-08-18T08:41:47.333Z,6.65
2018-08-18T08:42:21.728Z,8.28
2018-08-18T08:42:56.192Z,9.08
2018-08-18T08:43:35.012Z,6.30
2018-08-18T08:44:11.722Z,5.83
2018-08-18T08:44:46.783Z,5.97
2018-08-18T08:45:22.459Z,6.65
2018-08-18T08:45:56.436Z,7.28
2018-08-18T08:46:30.371Z,7.85
2018-08-18T08:47:06.462Z,7.40
2018-08-18T08:47:40.920Z,4.60
2018-08-18T08:48:14.997Z,6.80
2018-08-18T08:48:56.111Z,5.45
2018-08-18T08:49:30.092Z,9.68
2018-08-18T08:50:05.342Z,8.68
2018-08-18T08:50:39.580Z,6.67
2018-08-18T08:51:13.847Z,7.10
2018-08-18T08:51:47.788Z,8.50
2018-08-18T08:52:22.024Z,5.97
2018-08-18T08:52:56.992Z,11.10
2018-08-18T08:53:31.119Z,7.25
2018-08-18T08:54:05.188Z,9.85
2018-08-18T08:54:39.858Z,6.75
2018-08-18T08:55:14.568Z,6.92
2018-08-18T08:55:48.462Z,8.95
2018-08-18T08:56:27.213Z,6.10
2018-08-18T08:57:02.880Z,6.10
2018-08-18T08:57:36.834Z,7.53
2018-08-18T08:58:11.376Z,9.30
2018-08-18T08:58:49.518Z,8.05
2018-08-18T08:59:23.280Z,6.78
2018-08-18T08:59:57.130Z,5.62
2018-08-18T09:00:30.980Z,5.65
2018-08-18T09:01:05.059Z,6.50
2018-08-18T09:01:38.860Z,7.47
2018-08-18T09:02:14.148Z,6.37
2018-08-18T09:02:48.125Z,5.80
2018-08-18T09:03:22.287Z,5.05
2018-08-18T09:03:56.259Z,4.15
2018-08-18T09:04:31.460Z,5.25
2018-08-18T09:05:06.790Z,7.30
2018-08-18T09:05:41.241Z,6.15
2018-08-18T09:06:17.437Z,5.60
2018-08-18T09:06:54.331Z,5.75
2018-08-18T09:07:28.592Z,6.17
2018-08-18T09:08:02.543Z,3.98
2018-08-18T09:08:36.588Z,5.33
2018-08-18T09:09:10.608Z,4.45
2018-08-18T09:09:45.090Z,7.00
2018-08-18T09:10:19.253Z,5.97
2018-08-18T09:10:53.849Z,5.28
2018-08-18T09:11:30.131Z,5.50
2018-08-18T09:12:05.356Z,5.90
2018-08-18T09:12:39.382Z,7.33
2018-08-18T09:13:13.209Z,6.65
2018-08-18T09:13:59.536Z,5.45
2018-08-18T09:14:33.651Z,4.92
2018-08-18T09:15:08.784Z,5.70
2018-08-18T09:15:43.907Z,5.35
2018-08-18T09:16:17.849Z,4.87
2018-08-18T09:16:52.388Z,5.53
2018-08-18T09:17:26.268Z,4.70
2018-08-18T09:18:00.051Z,5.50
2018-08-18T09:18:34.324Z,6.67
2018-08-18T09:19:08.144Z,4.00
2018-08-18T09:19:42.227Z,7.62
2018-08-18T09:20:18.194Z,4.72
2018-08-18T09:20:52.207Z,4.00
2018-08-18T09:21:27.817Z,4.42
2018-08-18T09:22:02.970Z,4.28
2018-08-18T09:22:49.489Z,5.45
2018-08-18T09:23:23.620Z,4.47
2018-08-18T09:23:57.427Z,5.17
2018-08-18T09:24:32.019Z,6.10
2018-08-18T09:25:10.762Z,6.30
2018-08-18T09:25:45.125Z,4.72
2018-08-18T09:26:19.447Z,5.60
2018-08-18T09:26:54.753Z,4.62
2018-08-18T09:27:28.670Z,4.05
2018-08-18T09:28:03.066Z,6.62
2018-08-18T09:28:36.894Z,4.20
2018-08-18T09:29:11.559Z,6.42
2018-08-18T09:29:46.885Z,4.45
2018-08-18T09:30:21.457Z,5.12
2018-08-18T09:30:55.265Z,7.95
2018-08-18T09:31:29.332Z,5.15
2018-08-18T09:32:03.204Z,7.75
2018-08-18T09:32:37.473Z,7.58
2018-08-18T09:33:11.573Z,5.28
2018-08-18T09:33:46.219Z,4.95
2018-08-18T09:34:20.546Z,6.92
2018-08-18T09:34:54.634Z,6.22
2018-08-18T09:35:28.579Z,6.62
2018-08-18T09:36:04.111Z,4.50
2018-08-18T09:36:38.089Z,5.95
2018-08-18T09:37:11.928Z,5.50
2018-08-18T09:37:53.300Z,4.60
2018-08-18T09:38:27.322Z,5.35
2018-08-18T09:39:01.200Z,7.75
2018-08-18T09:39:35.227Z,6.90
2018-08-18T09:40:09.483Z,7.00
2018-08-18T09:40:43.847Z,6.97
2018-08-18T09:41:18.009Z,5.53
2018-08-18T09:41:52.340Z,5.80
2018-08-18T09:42:26.615Z,5.47
2018-08-18T09:43:08.527Z,5.95
2018-08-18T09:43:42.245Z,4.55
2018-08-18T09:44:21.885Z,6.53
2018-08-18T09:44:55.823Z,4.65
2018-08-18T09:45:29.692Z,6.50
2018-08-18T09:46:03.500Z,7.97
2018-08-18T09:46:37.431Z,8.60
2018-08-18T09:47:11.860Z,5.37
2018-08-18T09:47:45.682Z,5.33
2018-08-18T09:48:19.567Z,4.97
2018-08-18T09:48:53.818Z,5.28
2018-08-18T09:49:29.145Z,7.53
2018-08-18T09:50:03.151Z,6.30
2018-08-18T09:50:37.129Z,9.05
2018-08-18T09:51:11.174Z,6.70
2018-08-18T09:51:45.298Z,6.80
2018-08-18T09:52:20.068Z,7.85
2018-08-18T09:52:54.575Z,7.22
2018-08-18T09:53:28.939Z,4.40
2018-08-18T09:54:02.955Z,6.12
2018-08-18T09:54:36.965Z,3.25
2018-08-18T09:55:11.214Z,6.25
2018-08-18T09:55:45.473Z,7.47
2018-08-18T09:56:19.558Z,4.53
2018-08-18T09:56:55.463Z,8.28
2018-08-18T09:57:29.776Z,5.42
2018-08-18T09:58:03.916Z,4.20
2018-08-18T09:58:37.821Z,5.62
2018-08-18T09:59:11.661Z,4.58
2018-08-18T09:59:45.375Z,6.90
2018-08-18T10:00:23.956Z,4.30
2018-08-18T10:00:58.038Z,4.87
2018-08-18T10:01:32.776Z,5.05
2018-08-18T10:02:07.614Z,4.30
2018-08-18T10:02:41.949Z,3.27
2018-08-18T10:03:15.789Z,4.37
2018-08-18T10:03:49.976Z,5.15
2018-08-18T10:04:24.065Z,6.37
2018-08-18T10:04:58.468Z,6.35
2018-08-18T10:05:32.495Z,4.33
2018-08-18T10:06:06.420Z,7.62
2018-08-18T10:06:40.408Z,6.10
2018-08-18T10:07:14.233Z,5.72
2018-08-18T10:07:47.993Z,7.35
2018-08-18T10:08:22.096Z,5.37
2018-08-18T10:08:56.235Z,6.90
2018-08-18T10:09:30.291Z,6.15
2018-08-18T10:10:05.432Z,5.22
2018-08-18T10:10:39.573Z,6.97
2018-08-18T10:11:13.427Z,7.15
2018-08-18T10:11:47.247Z,4.35
2018-08-18T10:12:21.372Z,4.92
2018-08-18T10:12:55.467Z,5.03
2018-08-18T10:13:29.416Z,6.62
2018-08-18T10:14:03.511Z,5.65
2018-08-18T10:14:37.443Z,5.50
2018-08-18T10:15:11.753Z,6.33
2018-08-18T10:15:45.616Z,6.08
2018-08-18T10:16:19.640Z,6.85
2018-08-18T10:16:53.690Z,6.10
2018-08-18T10:17:27.703Z,7.08
2018-08-18T10:18:01.629Z,8.38
2018-08-18T10:18:40.207Z,5.62
2018-08-18T10:19:14.124Z,8.63
2018-08-18T10:19:47.972Z,7.55
2018-08-18T10:20:21.995Z,6.08
2018-08-18T10:20:55.853Z,7.67
2018-08-18T10:21:29.944Z,6.50
2018-08-18T10:22:05.652Z,6.55
2018-08-18T10:22:39.615Z,5.83
2018-08-18T10:23:13.381Z,9.00
2018-08-18T10:23:47.418Z,6.35
2018-08-18T10:24:21.362Z,6.58
2018-08-18T10:24:55.432Z,5.40
2018-08-18T10:25:30.010Z,6.53
2018-08-18T10:26:03.921Z,6.83
2018-08-18T10:26:38.413Z,9.80
2018-08-18T10:27:12.537Z,8.53
2018-08-18T10:27:48.350Z,6.28
2018-08-18T10:28:22.388Z,5.55
2018-08-18T10:29:11.920Z,8.88
2018-08-18T10:29:46.146Z,7.50
2018-08-18T10:30:19.915Z,6.33
2018-08-18T10:30:53.826Z,6.20
2018-08-18T10:31:27.977Z,6.70
2018-08-18T10:32:01.893Z,6.60
2018-08-18T10:32:44.240Z,6.95
2018-08-18T10:33:18.110Z,7.17
2018-08-18T10:33:52.213Z,6.42
2018-08-18T10:34:28.154Z,6.15
2018-08-18T10:35:01.891Z,7.97
2018-08-18T10:35:35.853Z,8.40
2018-08-18T10:36:09.795Z,7.75
2018-08-18T10:36:47.457Z,7.22
2018-08-18T10:37:21.461Z,6.05
2018-08-18T10:37:55.369Z,5.40
2018-08-18T10:38:29.320Z,8.43
2018-08-18T10:39:04.667Z,9.68
2018-08-18T10:39:38.584Z,6.60
2018-08-18T10:40:12.627Z,6.60
2018-08-18T10:40:47.497Z,8.95
2018-08-18T10:41:21.581Z,7.17
2018-08-18T10:42:08.270Z,6.87
2018-08-18T10:42:41.989Z,7.90
2018-08-18T10:43:16.108Z,8.08
2018-08-18T10:43:50.021Z,9.50
2018-08-18T10:44:24.799Z,7.62
2018-08-18T10:45:00.462Z,10.95
2018-08-18T10:45:35.192Z,7.33
2018-08-18T10:46:08.977Z,5.85
2018-08-18T10:46:42.950Z,9.30
2018-08-18T10:47:18.366Z,6.47
2018-08-18T10:47:52.284Z,5.85
2018-08-18T10:48:26.486Z,6.50